Syracuse, NY (13209)

4:07 PM EDT on October 31, 2014 (GMT -0400)
KNYSOLVA2 | Change Station
CLOSE
Current Station
Personal Weather Station
Location: Solvay, NY
Elevation: 512 ft
Nearby Weather Stations

Elev 512 ft 43.06 °N, 76.21 °W | Updated 51 seconds ago

Overcast
Overcast
49.8 °F
Feels Like 50 °F
N
0.0
Wind Variable Wind from West
Gusts 2.0 mph

Today
High -- | Low -- °F
--% Chance of Precip.
Yesterday
High -- | Low -- °F
Precip. -- in
7:38 AM 5:58 PM
First Quarter, 58% visible
Pressure 29.94 in
Visibility 10.0 miles
Clouds Scattered Clouds 3300 ft
Mostly Cloudy 5500 ft
Overcast 14000 ft
Windchill 50 °F
Dew Point 36 °F
Humidity 60%
Rainfall 0.00 in
Snow Depth Not available.
UV 0 out of 12
Pollen .10 out of 12
Air Quality Not available.
Flu Activity Not available.
METAR KSYR 311954Z 07006KT 10SM SCT033 BKN055 OVC140 10/02 A2993 RMK AO2 SLP136 BKN V OVC T01000017

More Conditions Fewer Conditions

Pressure 29.94 in
Visibility 10.0 miles
Clouds Scattered Clouds 3300 ft
Mostly Cloudy 5500 ft
Overcast 14000 ft
Windchill 50 °F
Dew Point 36 °F
Humidity 60%
Rainfall 0.00 in
Snow Depth Not available.
UV 0 out of 12
Pollen .10 out of 12
Air Quality Not available.
Flu Activity Not available.
METAR KSYR 311954Z 07006KT 10SM SCT033 BKN055 OVC140 10/02 A2993 RMK AO2 SLP136 BKN V OVC T01000017

More Conditions Fewer Conditions

10-Day Weather Forecast

Almanac

Astronomy

Oct. 31, 2014 Rise Set
Actual Time
Civil Twilight
Nautical Twilight
Astronomical Twilight
Moon
Length of Visible Light
Length of Day
Tomorrow will be .
, % of the Moon is Illuminated

Today's Extremes

State Highs State Lows

Community

WunderPhotos

Upload Photos

1,766,717 photos uploaded!

WunderBlogs® & News

Nearby

Air Quality

  Air Quality AQ Index Pollutant
Not available.

Snow Depth

Station Depth Elevation

Earthquake Activity

City Distance Mag. Time & Date
Minimum magnitude displayed is 2.5.

Coastal Water Temperatures

Place Temperature

Nearby Weather Stations